Time;durP1;ratioP1;P1;durP2;ratioP2;P2;SDS_P1;SDS_P2;PMS_P1;PMS_P2;Temp;Humidity;BMP_temperature;BMP_pressure;BME280_temperature;BME280_humidity;BME280_pressure;Samples;Min_cycle;Max_cycle;Signal;HPM_P1;HPM_P2
2022/01/26 00:00:54;;;;;;;0.38;0.20;;;;;;;;;;5015513;28;20041;-67
2022/01/26 00:06:10;;;;;;;0.93;0.05;;;;;;;;;;5015325;28;20125;-68
2022/01/26 00:08:39;;;;;;;0.17;0.10;;;;;;;;;;5014319;28;20385;-67
2022/01/26 00:11:04;;;;;;;0.30;0.20;;;;;;;;;;5014118;28;20535;-68
2022/01/26 00:13:29;;;;;;;0.17;0.08;;;;;;;;;;5013738;28;20030;-67
2022/01/26 00:15:56;;;;;;;0.25;0.10;;;;;;;;;;5015335;28;20071;-68
2022/01/26 00:18:23;;;;;;;0.30;0.10;;;;;;;;;;5015178;28;20041;-68
2022/01/26 00:20:56;;;;;;;0.60;0.10;;;;;;;;;;5015335;28;20054;-68
2022/01/26 00:26:23;;;;;;;0.32;0.10;;;;;;;;;;5015134;28;20068;-67
2022/01/26 00:38:34;;;;;;;0.10;0.10;;;;;;;;;;5014978;28;20135;-67
2022/01/26 00:39:49;;;;;;;0.32;0.10;;;;;;;;;;5014842;28;20092;-68
2022/01/26 00:42:14;;;;;;;0.32;0.10;;;;;;;;;;5014512;28;20026;-67
2022/01/26 00:44:44;;;;;;;0.40;0.03;;;;;;;;;;5014763;28;20457;-69
2022/01/26 00:47:09;;;;;;;0.60;0.10;;;;;;;;;;5014802;28;20021;-67
2022/01/26 00:49:35;;;;;;;0.63;0.40;;;;;;;;;;5014407;28;20029;-68
2022/01/26 00:52:04;;;;;;;0.27;0.10;;;;;;;;;;5014663;28;20018;-68
2022/01/26 00:54:29;;;;;;;0.30;0.10;;;;;;;;;;5014652;28;20248;-67
2022/01/26 00:56:54;;;;;;;0.73;0.10;;;;;;;;;;5014732;28;20063;-68
2022/01/26 00:59:20;;;;;;;0.70;0.13;;;;;;;;;;5014329;28;20033;-67
2022/01/26 01:01:46;;;;;;;0.00;0.00;;;;;;;;;;5014355;28;20280;-68
2022/01/26 01:04:11;;;;;;;0.80;0.10;;;;;;;;;;5014165;28;20297;-67
2022/01/26 01:06:48;;;;;;;0.50;0.10;;;;;;;;;;5014355;28;20101;-68
2022/01/26 01:09:15;;;;;;;0.38;0.17;;;;;;;;;;5014275;28;20122;-68
2022/01/26 01:11:41;;;;;;;0.28;0.17;;;;;;;;;;5014131;28;20018;-67
2022/01/26 01:14:06;;;;;;;0.22;0.05;;;;;;;;;;5014177;28;20014;-68
2022/01/26 01:16:31;;;;;;;0.63;0.30;;;;;;;;;;5014022;28;20021;-67
2022/01/26 01:19:06;;;;;;;0.83;0.10;;;;;;;;;;5014212;28;20128;-68
2022/01/26 01:24:24;;;;;;;0.57;0.17;;;;;;;;;;5014366;28;20053;-68
2022/01/26 01:27:05;;;;;;;0.60;0.10;;;;;;;;;;5013983;28;20645;-68
2022/01/26 01:29:39;;;;;;;0.28;0.10;;;;;;;;;;5013978;28;20022;-67
2022/01/26 01:32:11;;;;;;;0.20;0.10;;;;;;;;;;5013939;28;20021;-68
2022/01/26 01:34:38;;;;;;;0.70;0.20;;;;;;;;;;5013824;28;20137;-68
2022/01/26 01:37:06;;;;;;;1.00;0.10;;;;;;;;;;5013896;28;20103;-68
2022/01/26 01:39:33;;;;;;;0.60;0.20;;;;;;;;;;5013537;28;20042;-68
2022/01/26 01:41:59;;;;;;;1.70;0.10;;;;;;;;;;5013731;28;20022;-67
2022/01/26 01:44:24;;;;;;;1.33;0.20;;;;;;;;;;5013439;28;20026;-68
2022/01/26 01:46:50;;;;;;;0.20;0.10;;;;;;;;;;5013698;28;20095;-67
2022/01/26 01:49:15;;;;;;;0.57;0.13;;;;;;;;;;5013450;28;20073;-68
2022/01/26 01:51:47;;;;;;;0.50;0.10;;;;;;;;;;5013376;28;20053;-68
2022/01/26 01:54:17;;;;;;;1.08;0.20;;;;;;;;;;5011481;28;20018;-67
2022/01/26 01:56:43;;;;;;;0.10;0.00;;;;;;;;;;5013506;28;20531;-68
2022/01/26 01:59:09;;;;;;;0.00;0.00;;;;;;;;;;5012138;28;20109;-67
2022/01/26 02:01:34;;;;;;;0.10;0.10;;;;;;;;;;5013167;28;20105;-68
2022/01/26 02:03:59;;;;;;;0.17;0.10;;;;;;;;;;5012852;28;20064;-66
2022/01/26 02:06:24;;;;;;;0.40;0.20;;;;;;;;;;5013100;28;20030;-68
2022/01/26 02:08:49;;;;;;;0.43;0.20;;;;;;;;;;5013299;28;20294;-67
2022/01/26 02:11:15;;;;;;;0.87;0.23;;;;;;;;;;5013077;28;20553;-68
2022/01/26 02:16:25;;;;;;;0.52;0.10;;;;;;;;;;5013406;28;20474;-67
2022/01/26 02:51:49;;;;;;;0.53;0.00;;;;;;;;;;5012504;28;20029;-68
2022/01/26 03:09:33;;;;;;;0.13;0.00;;;;;;;;;;5016700;28;20029;-68
2022/01/26 03:11:59;;;;;;;0.03;0.00;;;;;;;;;;5016535;28;20017;-67
2022/01/26 03:15:07;;;;;;;0.82;0.08;;;;;;;;;;5016278;28;20412;-68
2022/01/26 03:17:35;;;;;;;0.65;0.20;;;;;;;;;;5014186;28;20040;-68
2022/01/26 03:20:07;;;;;;;0.20;0.10;;;;;;;;;;5016402;28;20030;-67
2022/01/26 03:35:58;;;;;;;1.88;0.20;;;;;;;;;;5016396;28;20025;-68
2022/01/26 03:38:39;;;;;;;0.30;0.10;;;;;;;;;;5015815;28;20512;-68
2022/01/26 03:43:35;;;;;;;0.25;0.13;;;;;;;;;;5015766;28;20018;-68
2022/01/26 03:46:00;;;;;;;1.23;0.00;;;;;;;;;;5015903;28;20602;-67
2022/01/26 03:48:25;;;;;;;0.40;0.20;;;;;;;;;;5015710;28;20263;-68
2022/01/26 03:50:50;;;;;;;0.30;0.20;;;;;;;;;;5015807;28;20392;-67
2022/01/26 03:53:16;;;;;;;0.40;0.10;;;;;;;;;;5015738;28;20258;-67
2022/01/26 03:55:41;;;;;;;0.77;0.17;;;;;;;;;;5015628;28;20243;-68
2022/01/26 03:58:06;;;;;;;0.33;0.20;;;;;;;;;;5015703;28;20810;-67
2022/01/26 04:00:31;;;;;;;0.38;0.10;;;;;;;;;;5015485;28;20243;-68
2022/01/26 04:02:56;;;;;;;0.10;0.00;;;;;;;;;;5015657;28;20032;-67
2022/01/26 04:05:22;;;;;;;0.70;0.17;;;;;;;;;;5015209;28;20053;-68
2022/01/26 04:07:51;;;;;;;0.22;0.10;;;;;;;;;;5015434;28;20033;-67
2022/01/26 04:10:32;;;;;;;0.38;0.17;;;;;;;;;;5015585;28;20426;-67
2022/01/26 04:12:57;;;;;;;0.73;0.10;;;;;;;;;;5015478;28;20450;-68
2022/01/26 04:15:28;;;;;;;0.20;0.00;;;;;;;;;;5015191;28;20072;-67
2022/01/26 04:17:53;;;;;;;0.30;0.20;;;;;;;;;;5015049;28;20026;-68
2022/01/26 04:20:19;;;;;;;0.17;0.10;;;;;;;;;;5015175;28;20401;-67
2022/01/26 04:23:07;;;;;;;0.17;0.03;;;;;;;;;;5015232;28;20454;-68
2022/01/26 04:25:30;;;;;;;0.40;0.10;;;;;;;;;;5015090;28;20021;-68
2022/01/26 04:27:58;;;;;;;0.40;0.10;;;;;;;;;;5015116;28;20014;-67
2022/01/26 04:30:23;;;;;;;0.20;0.10;;;;;;;;;;5014929;28;20100;-68
2022/01/26 04:32:48;;;;;;;0.10;0.10;;;;;;;;;;5015085;28;20052;-67
2022/01/26 04:35:13;;;;;;;0.43;0.30;;;;;;;;;;5014915;28;20033;-68
2022/01/26 04:40:07;;;;;;;0.50;0.00;;;;;;;;;;5015186;28;20711;-67
2022/01/26 04:42:46;;;;;;;0.30;0.20;;;;;;;;;;5014668;28;20409;-68
2022/01/26 04:45:12;;;;;;;0.30;0.08;;;;;;;;;;5014804;28;20025;-67
2022/01/26 04:47:37;;;;;;;0.40;0.05;;;;;;;;;;5014649;28;20109;-68
2022/01/26 04:50:03;;;;;;;0.68;0.17;;;;;;;;;;5014738;28;20060;-67
2022/01/26 04:52:29;;;;;;;0.35;0.20;;;;;;;;;;5014531;28;20022;-68
2022/01/26 04:54:54;;;;;;;0.87;0.10;;;;;;;;;;5014834;28;20022;-68
2022/01/26 04:57:19;;;;;;;0.63;0.20;;;;;;;;;;5014454;28;20381;-67
2022/01/26 04:59:44;;;;;;;0.47;0.00;;;;;;;;;;5014431;28;20021;-68
2022/01/26 05:02:09;;;;;;;0.70;0.10;;;;;;;;;;5014404;28;20339;-67
2022/01/26 05:04:34;;;;;;;0.52;0.10;;;;;;;;;;5014070;28;20076;-68
2022/01/26 05:07:00;;;;;;;0.40;0.23;;;;;;;;;;5014478;28;20065;-66
2022/01/26 05:09:25;;;;;;;0.50;0.10;;;;;;;;;;5014171;28;20326;-67
2022/01/26 05:11:53;;;;;;;0.50;0.30;;;;;;;;;;5014252;28;20030;-68
2022/01/26 05:14:18;;;;;;;0.38;0.10;;;;;;;;;;5014103;28;20750;-67
2022/01/26 05:16:44;;;;;;;0.98;0.20;;;;;;;;;;5014194;28;20053;-67
2022/01/26 05:19:09;;;;;;;1.27;0.10;;;;;;;;;;5014231;28;20377;-67
2022/01/26 05:21:35;;;;;;;0.52;0.20;;;;;;;;;;5013902;28;20457;-67
2022/01/26 05:24:00;;;;;;;1.15;0.28;;;;;;;;;;5014098;28;20045;-66
2022/01/26 05:26:25;;;;;;;0.28;0.00;;;;;;;;;;5013795;28;20056;-68
2022/01/26 05:28:51;;;;;;;0.93;0.10;;;;;;;;;;5013285;28;20145;-67
2022/01/26 05:31:16;;;;;;;0.20;0.10;;;;;;;;;;5012519;28;20280;-67
2022/01/26 05:33:42;;;;;;;0.77;0.15;;;;;;;;;;5013823;28;20026;-67
2022/01/26 05:36:07;;;;;;;0.25;0.05;;;;;;;;;;5013847;28;20018;-67
2022/01/26 05:38:32;;;;;;;0.63;0.17;;;;;;;;;;5013631;28;20557;-68
2022/01/26 05:41:01;;;;;;;0.10;0.10;;;;;;;;;;5014133;28;20108;-67
2022/01/26 05:43:26;;;;;;;0.30;0.00;;;;;;;;;;5013469;28;20706;-67
2022/01/26 05:45:55;;;;;;;0.30;0.10;;;;;;;;;;5013694;28;20045;-67
2022/01/26 05:48:20;;;;;;;0.30;0.00;;;;;;;;;;5013505;28;20025;-68
2022/01/26 05:50:52;;;;;;;0.20;0.00;;;;;;;;;;5012222;28;20018;-67
2022/01/26 05:53:20;;;;;;;0.88;0.20;;;;;;;;;;5013441;28;20473;-67
2022/01/26 05:55:46;;;;;;;0.00;0.00;;;;;;;;;;5013539;28;20021;-67
2022/01/26 05:58:11;;;;;;;0.35;0.00;;;;;;;;;;5013367;28;20532;-66
2022/01/26 06:00:36;;;;;;;1.75;0.10;;;;;;;;;;5013365;28;20034;-69
2022/01/26 06:03:02;;;;;;;0.10;0.00;;;;;;;;;;5013275;28;20084;-67
2022/01/26 06:05:27;;;;;;;1.60;0.20;;;;;;;;;;5012927;28;20057;-67
2022/01/26 06:07:52;;;;;;;0.03;0.00;;;;;;;;;;5013295;28;20262;-68
2022/01/26 06:10:17;;;;;;;0.43;0.00;;;;;;;;;;5013021;28;20780;-67
2022/01/26 06:12:42;;;;;;;0.15;0.00;;;;;;;;;;5013311;28;20030;-67
2022/01/26 06:15:08;;;;;;;0.13;0.10;;;;;;;;;;5013451;28;20079;-66
2022/01/26 06:17:33;;;;;;;0.30;0.10;;;;;;;;;;5013289;28;20464;-68
2022/01/26 06:19:58;;;;;;;0.57;0.20;;;;;;;;;;5013075;28;20045;-67
2022/01/26 06:22:23;;;;;;;0.57;0.10;;;;;;;;;;5012924;28;20037;-67
2022/01/26 06:24:49;;;;;;;0.40;0.10;;;;;;;;;;5013125;28;20057;-67
2022/01/26 06:27:14;;;;;;;0.13;0.00;;;;;;;;;;5012864;28;20462;-67
2022/01/26 06:29:39;;;;;;;0.43;0.13;;;;;;;;;;5012809;28;20247;-68
2022/01/26 06:32:05;;;;;;;1.40;0.10;;;;;;;;;;5012882;28;20021;-67
2022/01/26 06:34:31;;;;;;;0.75;0.00;;;;;;;;;;5012768;28;20239;-67
2022/01/26 06:36:56;;;;;;;0.38;0.10;;;;;;;;;;5012879;28;20018;-68
2022/01/26 06:39:21;;;;;;;0.28;0.10;;;;;;;;;;5012734;28;20024;-68
2022/01/26 06:41:51;;;;;;;0.57;0.10;;;;;;;;;;5012539;28;20048;-68
2022/01/26 06:44:26;;;;;;;0.80;0.20;;;;;;;;;;5012803;28;20259;-67
2022/01/26 06:47:05;;;;;;;0.45;0.10;;;;;;;;;;5012862;28;20531;-68
2022/01/26 06:49:30;;;;;;;0.43;0.17;;;;;;;;;;5012709;28;20029;-66
2022/01/26 06:51:56;;;;;;;0.35;0.00;;;;;;;;;;5012615;28;20068;-68
2022/01/26 06:54:21;;;;;;;0.10;0.10;;;;;;;;;;5012837;28;20029;-68
2022/01/26 06:56:47;;;;;;;0.13;0.13;;;;;;;;;;5012644;28;20014;-67
2022/01/26 06:59:12;;;;;;;1.13;0.20;;;;;;;;;;5012924;28;20453;-68
2022/01/26 07:01:38;;;;;;;0.38;0.10;;;;;;;;;;5012433;28;20017;-67
2022/01/26 07:04:03;;;;;;;0.60;0.00;;;;;;;;;;5011862;28;20042;-68
2022/01/26 07:06:28;;;;;;;0.00;0.00;;;;;;;;;;5008790;28;20132;-67
2022/01/26 07:08:53;;;;;;;0.10;0.10;;;;;;;;;;5012510;28;20030;-68
2022/01/26 07:11:19;;;;;;;0.10;0.00;;;;;;;;;;5012328;28;20022;-68
2022/01/26 07:13:45;;;;;;;1.23;0.20;;;;;;;;;;5012405;28;20546;-68
2022/01/26 07:21:38;;;;;;;0.32;0.10;;;;;;;;;;5012340;28;20505;-68
2022/01/26 07:24:03;;;;;;;0.33;0.10;;;;;;;;;;5012409;28;20097;-68
2022/01/26 07:26:30;;;;;;;1.50;0.20;;;;;;;;;;5011154;28;20030;-67
2022/01/26 07:28:55;;;;;;;0.52;0.20;;;;;;;;;;5012399;28;20537;-68
2022/01/26 07:31:21;;;;;;;0.43;0.10;;;;;;;;;;5012347;28;20105;-67
2022/01/26 07:33:52;;;;;;;0.40;0.10;;;;;;;;;;5012321;28;20470;-68
2022/01/26 07:36:18;;;;;;;0.28;0.20;;;;;;;;;;5011187;28;20037;-67
2022/01/26 07:38:43;;;;;;;0.40;0.00;;;;;;;;;;5012122;28;20022;-67
2022/01/26 07:41:08;;;;;;;0.05;0.00;;;;;;;;;;5010437;28;20041;-65
2022/01/26 07:43:33;;;;;;;1.75;0.10;;;;;;;;;;5010152;28;20609;-64
2022/01/26 07:45:58;;;;;;;0.88;0.10;;;;;;;;;;5012134;28;20026;-65
2022/01/26 07:48:24;;;;;;;0.20;0.20;;;;;;;;;;5011174;28;20030;-64
2022/01/26 07:50:51;;;;;;;0.25;0.10;;;;;;;;;;5012055;28;20026;-65
2022/01/26 07:53:17;;;;;;;0.20;0.10;;;;;;;;;;5010465;28;20029;-65
2022/01/26 07:55:42;;;;;;;0.55;0.40;;;;;;;;;;5008059;28;20018;-64
2022/01/26 07:58:11;;;;;;;0.77;0.10;;;;;;;;;;5012593;28;20018;-67
2022/01/26 08:00:37;;;;;;;0.77;0.20;;;;;;;;;;5014495;28;20018;-67
2022/01/26 08:03:03;;;;;;;0.55;0.10;;;;;;;;;;5030438;28;20034;-65
2022/01/26 08:05:28;;;;;;;0.00;0.00;;;;;;;;;;5012552;28;20543;-67
2022/01/26 08:07:53;;;;;;;0.68;0.10;;;;;;;;;;5014121;28;20038;-67
2022/01/26 08:10:19;;;;;;;0.20;0.10;;;;;;;;;;5014853;28;20037;-66
2022/01/26 08:12:44;;;;;;;0.22;0.10;;;;;;;;;;5012845;28;20037;-65
2022/01/26 08:15:09;;;;;;;0.73;0.10;;;;;;;;;;5012089;28;20033;-67
2022/01/26 08:17:35;;;;;;;1.02;0.10;;;;;;;;;;5009939;28;20276;-66
2022/01/26 08:20:00;;;;;;;0.60;0.17;;;;;;;;;;5007936;28;20010;-65
2022/01/26 08:22:27;;;;;;;1.52;0.38;;;;;;;;;;5013694;28;20377;-67
2022/01/26 08:24:53;;;;;;;0.40;0.15;;;;;;;;;;5014501;28;20049;-66
2022/01/26 08:27:20;;;;;;;0.30;0.15;;;;;;;;;;5015071;28;20069;-65
2022/01/26 08:29:53;;;;;;;0.40;0.20;;;;;;;;;;5013726;28;20014;-66
2022/01/26 08:32:18;;;;;;;1.65;0.20;;;;;;;;;;5011457;28;20064;-66
2022/01/26 08:34:43;;;;;;;3.70;0.50;;;;;;;;;;5014223;28;20026;-62
2022/01/26 08:37:09;;;;;;;0.25;0.10;;;;;;;;;;5012254;28;20033;-64
2022/01/26 08:39:34;;;;;;;1.85;0.40;;;;;;;;;;5013513;28;20026;-64
2022/01/26 08:42:00;;;;;;;1.65;0.40;;;;;;;;;;5003165;28;20038;-64
2022/01/26 08:44:26;;;;;;;1.50;0.60;;;;;;;;;;5013934;28;20072;-64
2022/01/26 08:46:52;;;;;;;1.05;0.52;;;;;;;;;;5014366;28;20033;-65
2022/01/26 08:49:17;;;;;;;3.65;0.52;;;;;;;;;;5014157;28;20021;-65
2022/01/26 08:51:42;;;;;;;1.40;0.40;;;;;;;;;;5013755;28;20046;-66
2022/01/26 08:54:10;;;;;;;0.80;0.17;;;;;;;;;;5013856;28;20022;-65
2022/01/26 08:56:35;;;;;;;1.27;0.40;;;;;;;;;;5011892;28;20309;-66
2022/01/26 08:59:00;;;;;;;0.35;0.10;;;;;;;;;;5004272;28;20393;-66
2022/01/26 09:01:26;;;;;;;1.05;0.43;;;;;;;;;;5013225;28;20032;-68
2022/01/26 09:03:51;;;;;;;1.20;0.30;;;;;;;;;;5013492;28;20057;-69
2022/01/26 09:06:16;;;;;;;0.57;0.17;;;;;;;;;;5013279;28;20678;-66
2022/01/26 09:08:44;;;;;;;1.53;0.40;;;;;;;;;;5014152;28;20068;-63
2022/01/26 09:11:09;;;;;;;0.75;0.30;;;;;;;;;;5013527;28;20279;-62
2022/01/26 09:13:35;;;;;;;0.50;0.28;;;;;;;;;;5013387;28;20109;-62
2022/01/26 09:16:02;;;;;;;0.65;0.38;;;;;;;;;;5013716;28;20453;-63
2022/01/26 09:18:37;;;;;;;0.32;0.20;;;;;;;;;;5028735;28;20056;-62
2022/01/26 09:21:02;;;;;;;0.52;0.20;;;;;;;;;;5013720;28;20018;-64
2022/01/26 09:23:28;;;;;;;1.00;0.20;;;;;;;;;;5013485;28;20140;-66
2022/01/26 09:25:53;;;;;;;1.33;0.20;;;;;;;;;;5010714;28;20026;-63
2022/01/26 09:28:18;;;;;;;0.98;0.20;;;;;;;;;;5011727;28;20097;-63
2022/01/26 09:30:43;;;;;;;0.40;0.20;;;;;;;;;;5013278;28;20305;-64
2022/01/26 09:33:08;;;;;;;1.13;0.70;;;;;;;;;;5010523;28;20044;-63
2022/01/26 09:35:33;;;;;;;0.90;0.40;;;;;;;;;;5010724;28;20037;-63
2022/01/26 09:37:59;;;;;;;1.60;0.30;;;;;;;;;;5011569;28;20604;-63
2022/01/26 09:40:24;;;;;;;1.70;0.55;;;;;;;;;;5013206;28;20286;-64
2022/01/26 09:42:51;;;;;;;1.73;0.87;;;;;;;;;;5013992;28;20068;-61
2022/01/26 09:45:17;;;;;;;0.88;0.68;;;;;;;;;;5012118;28;20033;-61
2022/01/26 09:47:43;;;;;;;0.50;0.30;;;;;;;;;;5013094;28;20409;-60
2022/01/26 09:50:08;;;;;;;1.38;0.40;;;;;;;;;;5010986;28;20026;-61
2022/01/26 09:52:37;;;;;;;0.85;0.32;;;;;;;;;;5012147;28;20029;-61
2022/01/26 09:55:03;;;;;;;0.25;0.20;;;;;;;;;;5011614;28;20219;-61
2022/01/26 09:57:29;;;;;;;1.27;0.13;;;;;;;;;;5012300;28;20449;-62
2022/01/26 09:59:55;;;;;;;1.17;0.50;;;;;;;;;;5011948;28;20041;-61
2022/01/26 10:02:25;;;;;;;0.65;0.47;;;;;;;;;;5013171;28;20026;-62
2022/01/26 10:05:00;;;;;;;3.60;1.50;;;;;;;;;;5011230;28;20034;-62
2022/01/26 10:07:43;;;;;;;16.05;9.43;;;;;;;;;;5012690;28;20445;-61
2022/01/26 10:17:58;;;;;;;5.00;3.50;;;;;;;;;;5012034;28;20022;-64
2022/01/26 10:20:23;;;;;;;6.28;2.35;;;;;;;;;;5012853;28;20034;-63
2022/01/26 10:22:49;;;;;;;2.30;1.77;;;;;;;;;;5009321;28;20025;-65
2022/01/26 10:25:15;;;;;;;1.90;1.48;;;;;;;;;;5012304;28;20038;-65
2022/01/26 10:27:44;;;;;;;1.63;1.10;;;;;;;;;;5011342;28;20112;-63
2022/01/26 10:30:12;;;;;;;1.02;0.70;;;;;;;;;;5009808;28;20529;-63
2022/01/26 10:32:37;;;;;;;0.73;0.65;;;;;;;;;;5012452;28;20021;-62
2022/01/26 10:35:04;;;;;;;1.42;0.30;;;;;;;;;;5012671;28;20022;-62
2022/01/26 10:37:29;;;;;;;1.73;0.50;;;;;;;;;;5011229;28;20014;-62
2022/01/26 10:40:08;;;;;;;0.95;0.60;;;;;;;;;;5011842;28;20457;-63
2022/01/26 10:42:33;;;;;;;0.38;0.35;;;;;;;;;;5012718;28;20080;-63
2022/01/26 10:45:11;;;;;;;0.20;0.20;;;;;;;;;;5012873;28;20462;-62
2022/01/26 10:47:41;;;;;;;0.57;0.20;;;;;;;;;;5012547;28;20711;-63
2022/01/26 10:53:11;;;;;;;0.13;0.10;;;;;;;;;;5011157;28;20026;-62
2022/01/26 10:55:37;;;;;;;0.38;0.25;;;;;;;;;;4992835;28;20026;-62
2022/01/26 10:58:03;;;;;;;0.70;0.13;;;;;;;;;;4993061;28;20381;-62
2022/01/26 11:00:32;;;;;;;0.40;0.20;;;;;;;;;;5009896;28;20496;-62
2022/01/26 11:02:57;;;;;;;0.10;0.10;;;;;;;;;;5005286;28;20533;-62
2022/01/26 11:05:23;;;;;;;0.22;0.15;;;;;;;;;;5008251;28;20046;-62
2022/01/26 11:07:48;;;;;;;0.40;0.10;;;;;;;;;;5009950;28;20437;-66
2022/01/26 11:10:14;;;;;;;0.20;0.13;;;;;;;;;;5011313;28;20033;-62
2022/01/26 11:12:40;;;;;;;0.20;0.20;;;;;;;;;;5011290;28;20516;-61
2022/01/26 11:15:06;;;;;;;0.38;0.25;;;;;;;;;;5012085;28;20029;-61
2022/01/26 11:17:34;;;;;;;0.10;0.10;;;;;;;;;;5011813;28;20465;-61
2022/01/26 11:20:02;;;;;;;0.20;0.20;;;;;;;;;;5012034;28;20465;-62
2022/01/26 11:22:31;;;;;;;0.10;0.10;;;;;;;;;;5011817;28;20084;-62
2022/01/26 11:25:09;;;;;;;0.00;0.00;;;;;;;;;;5012041;28;20373;-62
2022/01/26 11:27:37;;;;;;;0.00;0.00;;;;;;;;;;5013515;28;20024;-62
2022/01/26 11:30:14;;;;;;;0.03;0.03;;;;;;;;;;5016143;28;20092;-62
2022/01/26 11:32:48;;;;;;;0.00;0.00;;;;;;;;;;5016286;28;20481;-61
2022/01/26 11:35:13;;;;;;;0.00;0.00;;;;;;;;;;5016069;28;20018;-61
2022/01/26 11:37:46;;;;;;;0.00;0.00;;;;;;;;;;5015977;28;20033;-61
2022/01/26 11:46:04;;;;;;;0.00;0.00;;;;;;;;;;5016533;28;20441;-61
2022/01/26 11:48:29;;;;;;;0.00;0.00;;;;;;;;;;5015815;28;20029;-61
2022/01/26 11:50:59;;;;;;;0.00;0.00;;;;;;;;;;5015932;28;20030;-61
2022/01/26 11:53:25;;;;;;;0.00;0.00;;;;;;;;;;5015736;28;20634;-61
2022/01/26 11:55:58;;;;;;;0.17;0.17;;;;;;;;;;5015086;28;20022;-61
2022/01/26 11:58:28;;;;;;;0.00;0.00;;;;;;;;;;5015572;28;20029;-61
2022/01/26 12:04:02;;;;;;;0.00;0.00;;;;;;;;;;5015724;28;20382;-61
2022/01/26 12:06:35;;;;;;;0.03;0.00;;;;;;;;;;5013566;28;20408;-61
2022/01/26 12:09:00;;;;;;;0.08;0.08;;;;;;;;;;5012514;28;20480;-61
2022/01/26 12:11:29;;;;;;;0.00;0.00;;;;;;;;;;5010904;28;20026;-61
2022/01/26 12:14:01;;;;;;;0.00;0.00;;;;;;;;;;5010076;28;20014;-62
2022/01/26 12:16:41;;;;;;;0.00;0.00;;;;;;;;;;5008921;28;20361;-61
2022/01/26 12:38:02;;;;;;;0.10;0.00;;;;;;;;;;5012454;28;20254;-62
2022/01/26 12:43:12;;;;;;;0.20;0.00;;;;;;;;;;5007420;28;20492;-60
2022/01/26 12:45:37;;;;;;;0.30;0.10;;;;;;;;;;5012210;28;20025;-60
2022/01/26 12:48:02;;;;;;;0.60;0.15;;;;;;;;;;5012367;28;20025;-60
2022/01/26 12:50:28;;;;;;;1.27;0.30;;;;;;;;;;5006011;28;20042;-60
2022/01/26 12:52:55;;;;;;;2.05;0.47;;;;;;;;;;5012827;28;20025;-64
2022/01/26 12:55:21;;;;;;;1.75;0.20;;;;;;;;;;5012364;28;20057;-64
2022/01/26 12:57:46;;;;;;;0.80;0.20;;;;;;;;;;5011518;28;20021;-65
2022/01/26 13:00:13;;;;;;;2.23;0.20;;;;;;;;;;5011933;28;20366;-60
2022/01/26 13:02:38;;;;;;;1.38;0.30;;;;;;;;;;5012695;28;20045;-60
2022/01/26 13:05:04;;;;;;;2.42;0.35;;;;;;;;;;5026781;28;20034;-59
2022/01/26 13:07:29;;;;;;;0.10;0.10;;;;;;;;;;5011741;28;20485;-61
2022/01/26 13:09:54;;;;;;;2.50;0.20;;;;;;;;;;5009512;28;20080;-65
2022/01/26 13:12:29;;;;;;;0.70;0.43;;;;;;;;;;5012079;28;20022;-62
2022/01/26 13:15:17;;;;;;;3.78;0.30;;;;;;;;;;5026006;28;20072;-64
2022/01/26 13:18:04;;;;;;;0.65;0.20;;;;;;;;;;5009163;28;20024;-65
2022/01/26 13:23:31;;;;;;;2.00;0.25;;;;;;;;;;5013013;28;20029;-63
2022/01/26 13:26:15;;;;;;;0.82;0.20;;;;;;;;;;5012302;28;20028;-63
2022/01/26 13:29:04;;;;;;;0.90;0.20;;;;;;;;;;5011660;28;20021;-62
2022/01/26 13:42:25;;;;;;;1.52;0.30;;;;;;;;;;5012942;28;20472;-63
2022/01/26 13:47:25;;;;;;;0.47;0.10;;;;;;;;;;4995583;28;20117;-64
2022/01/26 13:59:54;;;;;;;0.50;0.30;;;;;;;;;;5001184;28;20098;-63
2022/01/26 14:02:19;;;;;;;0.88;0.32;;;;;;;;;;4992789;28;20257;-63
2022/01/26 14:04:44;;;;;;;0.20;0.10;;;;;;;;;;5008007;28;20054;-66
2022/01/26 14:07:09;;;;;;;2.47;0.45;;;;;;;;;;5008520;28;20276;-62
2022/01/26 14:09:36;;;;;;;0.70;0.07;;;;;;;;;;5010909;28;20189;-63
2022/01/26 14:12:02;;;;;;;0.73;0.10;;;;;;;;;;5012171;28;20057;-65
2022/01/26 14:14:37;;;;;;;1.08;0.20;;;;;;;;;;5011384;28;20269;-63
2022/01/26 14:17:04;;;;;;;0.63;0.10;;;;;;;;;;5006335;28;20017;-62
2022/01/26 14:22:32;;;;;;;1.00;0.10;;;;;;;;;;5009977;28;20072;-63
2022/01/26 14:25:24;;;;;;;0.10;0.07;;;;;;;;;;5012167;28;20041;-63
2022/01/26 14:27:53;;;;;;;0.82;0.10;;;;;;;;;;5011268;28;20025;-63
2022/01/26 14:30:37;;;;;;;0.20;0.10;;;;;;;;;;5011989;28;20519;-64
2022/01/26 15:30:11;;;;;;;0.47;0.10;;;;;;;;;;4875622;29;20043;-64
2022/01/26 15:35:24;;;;;;;0.70;0.10;;;;;;;;;;4931218;29;20020;-64
2022/01/26 15:50:52;;;;;;;;;;;;;;;;;;5012518;28;20041;-63
2022/01/26 15:58:50;;;;;;;0.13;0.10;;;;;;;;;;5011107;28;20021;-64
2022/01/26 16:06:59;;;;;;;0.70;0.10;;;;;;;;;;5010863;28;20132;-63
2022/01/26 16:36:44;;;;;;;0.47;0.15;;;;;;;;;;5014727;28;20381;-63
2022/01/26 17:34:36;;;;;;;0.33;0.10;;;;;;;;;;4991560;28;20081;-63
2022/01/26 18:04:05;;;;;;;2.13;0.17;;;;;;;;;;4971574;28;20078;-63
2022/01/26 18:16:58;;;;;;;1.13;0.10;;;;;;;;;;5013143;28;19947;-63
2022/01/26 18:32:57;;;;;;;0.90;0.10;;;;;;;;;;5013175;28;20084;-63
2022/01/26 18:51:34;;;;;;;0.88;0.10;;;;;;;;;;4990243;28;20052;-63
2022/01/26 18:53:59;;;;;;;0.40;0.10;;;;;;;;;;4990218;28;20429;-63
2022/01/26 18:56:24;;;;;;;1.08;0.28;;;;;;;;;;4990230;28;20019;-63
2022/01/26 18:58:49;;;;;;;0.30;0.00;;;;;;;;;;4990565;28;20073;-62
2022/01/26 19:01:15;;;;;;;0.23;0.10;;;;;;;;;;4990289;28;20719;-62
2022/01/26 19:03:40;;;;;;;0.80;0.20;;;;;;;;;;4990252;28;20073;-63
2022/01/26 19:06:05;;;;;;;0.38;0.22;;;;;;;;;;4990046;28;20346;-63
2022/01/26 19:08:32;;;;;;;1.13;0.47;;;;;;;;;;4990107;28;20543;-63
2022/01/26 19:10:57;;;;;;;0.40;0.10;;;;;;;;;;4990338;28;20346;-62
2022/01/26 19:13:27;;;;;;;0.60;0.22;;;;;;;;;;4989982;28;20424;-62
2022/01/26 19:15:56;;;;;;;0.20;0.10;;;;;;;;;;4990255;28;20022;-63
2022/01/26 19:18:32;;;;;;;1.70;0.40;;;;;;;;;;4990013;28;20065;-63
2022/01/26 19:21:12;;;;;;;1.65;0.20;;;;;;;;;;4990329;28;20026;-62
2022/01/26 19:26:10;;;;;;;0.90;0.10;;;;;;;;;;5002630;28;20437;-62
2022/01/26 19:28:41;;;;;;;0.50;0.10;;;;;;;;;;5012034;28;20405;-62
2022/01/26 19:32:01;;;;;;;0.80;0.32;;;;;;;;;;5011241;28;20421;-62
2022/01/26 19:45:33;;;;;;;1.85;0.05;;;;;;;;;;5012416;28;20022;-62
2022/01/26 19:50:48;;;;;;;0.35;0.10;;;;;;;;;;5015717;28;20026;-63
2022/01/26 19:53:14;;;;;;;0.93;0.10;;;;;;;;;;5015684;28;20500;-62
2022/01/26 19:55:39;;;;;;;0.30;0.10;;;;;;;;;;5015428;28;20130;-63
2022/01/26 19:58:07;;;;;;;2.03;0.10;;;;;;;;;;5015600;28;20026;-63
2022/01/26 20:00:33;;;;;;;0.20;0.10;;;;;;;;;;5015399;28;20262;-62
2022/01/26 20:03:00;;;;;;;0.43;0.10;;;;;;;;;;5015428;28;20025;-62
2022/01/26 20:05:25;;;;;;;0.68;0.10;;;;;;;;;;5030354;28;20104;-62
2022/01/26 20:07:57;;;;;;;0.82;0.17;;;;;;;;;;5015355;28;20057;-63
2022/01/26 20:10:28;;;;;;;0.60;0.10;;;;;;;;;;5015426;28;20445;-63
2022/01/26 20:13:01;;;;;;;1.17;0.20;;;;;;;;;;5015529;28;20010;-62
2022/01/26 20:15:27;;;;;;;0.80;0.20;;;;;;;;;;5015211;28;20014;-62
2022/01/26 20:17:52;;;;;;;1.23;0.20;;;;;;;;;;5015229;28;20164;-63
2022/01/26 20:20:20;;;;;;;1.03;0.10;;;;;;;;;;5014977;28;20064;-62
2022/01/26 20:22:45;;;;;;;0.73;0.17;;;;;;;;;;5015256;28;20413;-62
2022/01/26 20:25:13;;;;;;;0.82;0.20;;;;;;;;;;5015165;28;20022;-63
2022/01/26 20:27:38;;;;;;;0.52;0.10;;;;;;;;;;5014971;28;20018;-63
2022/01/26 20:30:11;;;;;;;0.47;0.10;;;;;;;;;;5015049;28;20097;-63
2022/01/26 20:32:36;;;;;;;0.98;0.20;;;;;;;;;;5014735;28;20414;-63
2022/01/26 20:35:01;;;;;;;0.30;0.10;;;;;;;;;;5015028;28;20064;-62
2022/01/26 20:37:27;;;;;;;0.25;0.10;;;;;;;;;;5014707;28;20052;-63
2022/01/26 20:39:54;;;;;;;0.35;0.20;;;;;;;;;;5014817;28;20014;-63
2022/01/26 20:42:19;;;;;;;1.25;0.10;;;;;;;;;;5014500;28;20366;-63
2022/01/26 20:44:44;;;;;;;0.57;0.40;;;;;;;;;;5014791;28;20092;-62
2022/01/26 20:47:09;;;;;;;1.00;0.10;;;;;;;;;;5014812;28;20377;-63
2022/01/26 20:49:35;;;;;;;0.15;0.10;;;;;;;;;;5014438;28;20033;-63
2022/01/26 20:52:00;;;;;;;1.52;0.30;;;;;;;;;;5014583;28;20117;-63
2022/01/26 20:54:25;;;;;;;0.45;0.20;;;;;;;;;;5014313;28;20022;-63
2022/01/26 20:56:50;;;;;;;1.70;0.40;;;;;;;;;;5014410;28;20076;-62
2022/01/26 20:59:16;;;;;;;0.87;0.20;;;;;;;;;;5014395;28;20044;-62
2022/01/26 21:01:41;;;;;;;0.90;0.30;;;;;;;;;;5014367;28;20707;-62
2022/01/26 21:04:06;;;;;;;3.20;0.30;;;;;;;;;;5014278;28;20335;-63
2022/01/26 21:06:31;;;;;;;0.50;0.10;;;;;;;;;;5013963;28;20049;-63
2022/01/26 21:08:57;;;;;;;0.70;0.20;;;;;;;;;;5014469;28;20458;-63
2022/01/26 21:11:22;;;;;;;0.43;0.20;;;;;;;;;;5014081;28;20029;-62
2022/01/26 21:13:53;;;;;;;0.80;0.20;;;;;;;;;;5014371;28;20053;-63
2022/01/26 21:16:18;;;;;;;0.50;0.20;;;;;;;;;;5013882;28;20642;-63
2022/01/26 21:18:43;;;;;;;0.70;0.10;;;;;;;;;;5014190;28;20093;-62
2022/01/26 21:21:09;;;;;;;0.50;0.30;;;;;;;;;;5014385;28;20036;-62
2022/01/26 21:23:36;;;;;;;0.50;0.20;;;;;;;;;;5013866;28;20093;-62
2022/01/26 21:26:01;;;;;;;0.90;0.10;;;;;;;;;;5013947;28;20080;-63
2022/01/26 21:28:26;;;;;;;1.30;0.20;;;;;;;;;;5013683;28;20029;-63
2022/01/26 21:30:51;;;;;;;1.70;0.30;;;;;;;;;;5013955;28;20034;-62
2022/01/26 21:33:18;;;;;;;0.73;0.10;;;;;;;;;;5013790;28;20026;-63
2022/01/26 21:35:44;;;;;;;3.13;0.32;;;;;;;;;;5013777;28;20156;-63
2022/01/26 21:38:11;;;;;;;0.40;0.10;;;;;;;;;;5013586;28;20446;-62